SHT37A EGLL-EGJB
Flight info
| Callsign | SHT37A |
|---|---|
| Flight time | 0h 30m |
| Altitude | 20000 |
| Route | GASGU2J GASGU N514 EVTES/N0352F190 N621 SAM/N0348F180 N63 LELNA LELNA1B |
| Aircraft | A20N/M-SDGHIJ1LRWXY/SB1 |
Departure
| Time | 2026-05-05 20:18 |
|---|---|
| Airport | London Heathrow Airport (EGLL) |
Arrival
| Time | 2026-05-05 20:49 |
|---|---|
| Airport | Guernsey Airport (EGJB) |
| Time | Latitude | Longitude | Altitude | Speed | Heading |
|---|---|---|---|---|---|
| 2026-05-05 20:05 | 51.46927 | -0.48648 | 92 ft | 0 kts | 0° |
| 2026-05-05 20:13 | 51.46924 | -0.48648 | 92 ft | 2 kts | 1° |
| 2026-05-05 20:13 | 51.46909 | -0.48649 | 92 ft | 2 kts | 2° |
| 2026-05-05 20:13 | 51.46894 | -0.48650 | 92 ft | 2 kts | 2° |
| 2026-05-05 20:13 | 51.46882 | -0.48651 | 92 ft | 0 kts | 2° |
| 2026-05-05 20:14 | 51.46877 | -0.48651 | 92 ft | 0 kts | 326° |
| 2026-05-05 20:14 | 51.46874 | -0.48646 | 92 ft | 0 kts | 276° |
| 2026-05-05 20:14 | 51.46875 | -0.48637 | 92 ft | 1 kts | 269° |
| 2026-05-05 20:14 | 51.46875 | -0.48634 | 92 ft | 0 kts | 270° |
| 2026-05-05 20:16 | 51.46875 | -0.48637 | 92 ft | 1 kts | 270° |
| 2026-05-05 20:16 | 51.46874 | -0.48689 | 92 ft | 7 kts | 270° |
| 2026-05-05 20:16 | 51.46836 | -0.48750 | 92 ft | 11 kts | 182° |
| 2026-05-05 20:17 | 51.46742 | -0.48749 | 92 ft | 15 kts | 179° |
| 2026-05-05 20:17 | 51.46626 | -0.48754 | 92 ft | 17 kts | 192° |
| 2026-05-05 20:18 | 51.46487 | -0.47735 | 92 ft | 113 kts | 90° |
| 2026-05-05 20:18 | 51.46479 | -0.46160 | 262 ft | 159 kts | 88° |
| 2026-05-05 20:18 | 51.46482 | -0.44309 | 822 ft | 177 kts | 86° |
| 2026-05-05 20:18 | 51.46508 | -0.42396 | 1822 ft | 174 kts | 88° |
| 2026-05-05 20:19 | 51.46188 | -0.40465 | 2511 ft | 196 kts | 118° |
| 2026-05-05 20:19 | 51.45316 | -0.38679 | 3135 ft | 214 kts | 121° |
| 2026-05-05 20:19 | 51.44453 | -0.36660 | 3782 ft | 231 kts | 120° |
| 2026-05-05 20:19 | 51.43462 | -0.34524 | 4416 ft | 252 kts | 134° |
| 2026-05-05 20:20 | 51.41848 | -0.33219 | 5042 ft | 277 kts | 169° |
| 2026-05-05 20:20 | 51.39897 | -0.33086 | 5986 ft | 285 kts | 184° |
| 2026-05-05 20:20 | 51.38007 | -0.33933 | 6988 ft | 287 kts | 211° |
| 2026-05-05 20:20 | 51.36546 | -0.36060 | 8001 ft | 287 kts | 237° |
| 2026-05-05 20:21 | 51.35466 | -0.38695 | 8985 ft | 290 kts | 239° |
| 2026-05-05 20:21 | 51.34373 | -0.41419 | 9956 ft | 294 kts | 239° |
| 2026-05-05 20:21 | 51.33255 | -0.44191 | 10789 ft | 303 kts | 239° |
| 2026-05-05 20:21 | 51.32091 | -0.47059 | 11329 ft | 321 kts | 238° |
| 2026-05-05 20:22 | 51.30836 | -0.50132 | 11833 ft | 339 kts | 238° |
| 2026-05-05 20:22 | 51.29513 | -0.53351 | 12421 ft | 354 kts | 238° |
| 2026-05-05 20:22 | 51.28153 | -0.56651 | 13264 ft | 359 kts | 238° |
| 2026-05-05 20:22 | 51.26780 | -0.59975 | 14129 ft | 363 kts | 238° |
| 2026-05-05 20:23 | 51.25390 | -0.63333 | 14971 ft | 367 kts | 238° |
| 2026-05-05 20:23 | 51.23980 | -0.66736 | 15777 ft | 371 kts | 237° |
| 2026-05-05 20:23 | 51.22555 | -0.70174 | 16562 ft | 375 kts | 237° |
| 2026-05-05 20:23 | 51.21119 | -0.73631 | 17323 ft | 380 kts | 237° |
| 2026-05-05 20:24 | 51.19659 | -0.77143 | 18067 ft | 384 kts | 237° |
| 2026-05-05 20:24 | 51.18165 | -0.80728 | 18815 ft | 388 kts | 237° |
| 2026-05-05 20:24 | 51.16675 | -0.84299 | 19485 ft | 392 kts | 237° |
| 2026-05-05 20:24 | 51.15171 | -0.87896 | 19873 ft | 393 kts | 237° |
| 2026-05-05 20:25 | 51.13646 | -0.91543 | 19949 ft | 393 kts | 237° |
| 2026-05-05 20:25 | 51.12149 | -0.95118 | 19952 ft | 393 kts | 237° |
| 2026-05-05 20:25 | 51.10638 | -0.98723 | 19970 ft | 392 kts | 237° |
| 2026-05-05 20:25 | 51.09108 | -1.02366 | 19959 ft | 392 kts | 237° |
| 2026-05-05 20:26 | 51.07611 | -1.05926 | 19948 ft | 392 kts | 237° |
| 2026-05-05 20:26 | 51.06093 | -1.09533 | 19947 ft | 392 kts | 237° |
| 2026-05-05 20:26 | 51.04567 | -1.13155 | 19953 ft | 392 kts | 237° |
| 2026-05-05 20:26 | 51.03052 | -1.16743 | 19957 ft | 392 kts | 237° |
| 2026-05-05 20:27 | 51.01544 | -1.20309 | 19957 ft | 392 kts | 237° |
| 2026-05-05 20:27 | 51.00023 | -1.23897 | 19957 ft | 392 kts | 237° |
| 2026-05-05 20:27 | 50.98496 | -1.27495 | 19957 ft | 392 kts | 237° |
| 2026-05-05 20:27 | 50.96957 | -1.31032 | 19956 ft | 393 kts | 233° |
| 2026-05-05 20:28 | 50.95090 | -1.34180 | 19957 ft | 393 kts | 222° |
| 2026-05-05 20:28 | 50.92833 | -1.36727 | 19957 ft | 394 kts | 210° |
| 2026-05-05 20:28 | 50.90434 | -1.38717 | 19961 ft | 391 kts | 207° |
| 2026-05-05 20:28 | 50.88007 | -1.40619 | 19960 ft | 390 kts | 207° |
| 2026-05-05 20:29 | 50.85579 | -1.42514 | 19959 ft | 390 kts | 207° |
| 2026-05-05 20:29 | 50.83128 | -1.44440 | 19959 ft | 390 kts | 207° |
| 2026-05-05 20:29 | 50.80694 | -1.46364 | 19962 ft | 390 kts | 207° |
| 2026-05-05 20:29 | 50.78302 | -1.48264 | 19969 ft | 389 kts | 207° |
| 2026-05-05 20:30 | 50.75873 | -1.50194 | 19967 ft | 390 kts | 208° |
| 2026-05-05 20:30 | 50.73428 | -1.52135 | 19988 ft | 390 kts | 208° |
| 2026-05-05 20:30 | 50.70998 | -1.54061 | 19974 ft | 390 kts | 208° |
| 2026-05-05 20:30 | 50.68576 | -1.55979 | 19828 ft | 390 kts | 207° |
| 2026-05-05 20:31 | 50.66156 | -1.57893 | 19546 ft | 389 kts | 207° |
| 2026-05-05 20:31 | 50.63726 | -1.59812 | 19301 ft | 388 kts | 207° |
| 2026-05-05 20:31 | 50.61335 | -1.61697 | 19050 ft | 386 kts | 207° |
| 2026-05-05 20:31 | 50.58908 | -1.63608 | 18794 ft | 385 kts | 207° |
| 2026-05-05 20:32 | 50.56530 | -1.65480 | 18541 ft | 384 kts | 206° |
| 2026-05-05 20:32 | 50.54137 | -1.67360 | 18279 ft | 383 kts | 206° |
| 2026-05-05 20:32 | 50.51769 | -1.69219 | 18035 ft | 382 kts | 206° |
| 2026-05-05 20:32 | 50.49388 | -1.71085 | 17964 ft | 381 kts | 206° |
| 2026-05-05 20:33 | 50.46995 | -1.72958 | 17958 ft | 382 kts | 206° |
| 2026-05-05 20:33 | 50.44586 | -1.74662 | 17959 ft | 383 kts | 202° |
| 2026-05-05 20:33 | 50.42119 | -1.76254 | 17957 ft | 383 kts | 202° |
| 2026-05-05 20:33 | 50.39629 | -1.77838 | 17953 ft | 383 kts | 202° |
| 2026-05-05 20:34 | 50.37183 | -1.79401 | 17950 ft | 383 kts | 202° |
| 2026-05-05 20:34 | 50.34725 | -1.80980 | 17953 ft | 384 kts | 202° |
| 2026-05-05 20:34 | 50.32247 | -1.82578 | 17953 ft | 384 kts | 202° |
| 2026-05-05 20:34 | 50.29787 | -1.84169 | 17954 ft | 384 kts | 202° |
| 2026-05-05 20:35 | 50.27298 | -1.85780 | 17953 ft | 384 kts | 202° |
| 2026-05-05 20:35 | 50.24831 | -1.87376 | 17950 ft | 384 kts | 202° |
| 2026-05-05 20:35 | 50.22384 | -1.88959 | 17949 ft | 384 kts | 202° |
| 2026-05-05 20:35 | 50.19890 | -1.90571 | 17733 ft | 383 kts | 202° |
| 2026-05-05 20:36 | 50.17441 | -1.92151 | 17481 ft | 381 kts | 202° |
| 2026-05-05 20:36 | 50.15025 | -1.93708 | 17236 ft | 380 kts | 202° |
| 2026-05-05 20:36 | 50.12557 | -1.95297 | 16980 ft | 379 kts | 202° |
| 2026-05-05 20:36 | 50.10128 | -1.96860 | 16724 ft | 379 kts | 202° |
| 2026-05-05 20:37 | 50.07690 | -1.98428 | 16471 ft | 378 kts | 202° |
| 2026-05-05 20:37 | 50.05259 | -1.99988 | 16220 ft | 376 kts | 202° |
| 2026-05-05 20:37 | 50.02826 | -2.01546 | 15969 ft | 375 kts | 202° |
| 2026-05-05 20:37 | 50.00416 | -2.03090 | 15715 ft | 373 kts | 202° |
| 2026-05-05 20:38 | 49.98214 | -2.04499 | 15480 ft | 372 kts | 202° |
| 2026-05-05 20:38 | 49.95814 | -2.06033 | 15207 ft | 371 kts | 202° |
| 2026-05-05 20:38 | 49.93443 | -2.07548 | 14794 ft | 368 kts | 202° |
| 2026-05-05 20:38 | 49.91029 | -2.09090 | 13916 ft | 376 kts | 202° |
| 2026-05-05 20:39 | 49.88619 | -2.10626 | 13175 ft | 378 kts | 202° |
| 2026-05-05 20:39 | 49.86195 | -2.12169 | 12585 ft | 375 kts | 202° |
| 2026-05-05 20:39 | 49.83780 | -2.13705 | 12017 ft | 372 kts | 202° |
| 2026-05-05 20:39 | 49.81409 | -2.15211 | 11456 ft | 366 kts | 202° |
| 2026-05-05 20:40 | 49.79110 | -2.16668 | 10874 ft | 348 kts | 202° |
| 2026-05-05 20:40 | 49.76907 | -2.18064 | 9995 ft | 339 kts | 202° |
| 2026-05-05 20:40 | 49.74770 | -2.19416 | 9428 ft | 321 kts | 203° |
| 2026-05-05 20:40 | 49.72759 | -2.20674 | 8965 ft | 303 kts | 200° |
| 2026-05-05 20:41 | 49.70761 | -2.21332 | 8337 ft | 294 kts | 185° |
| 2026-05-05 20:41 | 49.68741 | -2.21514 | 7601 ft | 290 kts | 181° |
| 2026-05-05 20:41 | 49.66718 | -2.21613 | 6841 ft | 287 kts | 181° |
| 2026-05-05 20:41 | 49.64751 | -2.21700 | 6105 ft | 284 kts | 181° |
| 2026-05-05 20:42 | 49.62806 | -2.21793 | 5374 ft | 281 kts | 181° |
| 2026-05-05 20:42 | 49.60883 | -2.22198 | 4616 ft | 280 kts | 195° |
| 2026-05-05 20:42 | 49.59061 | -2.23116 | 3893 ft | 277 kts | 200° |
| 2026-05-05 20:42 | 49.57269 | -2.24140 | 3285 ft | 270 kts | 200° |
| 2026-05-05 20:43 | 49.55550 | -2.25154 | 3066 ft | 260 kts | 202° |
| 2026-05-05 20:43 | 49.54002 | -2.26529 | 2887 ft | 252 kts | 219° |
| 2026-05-05 20:43 | 49.52666 | -2.28210 | 2721 ft | 243 kts | 222° |
| 2026-05-05 20:43 | 49.51407 | -2.29864 | 2584 ft | 235 kts | 221° |
| 2026-05-05 20:44 | 49.50168 | -2.31431 | 2454 ft | 226 kts | 220° |
| 2026-05-05 20:44 | 49.48985 | -2.32873 | 2423 ft | 209 kts | 219° |
| 2026-05-05 20:44 | 49.47857 | -2.34218 | 2303 ft | 200 kts | 219° |
| 2026-05-05 20:44 | 49.46776 | -2.35494 | 2080 ft | 196 kts | 220° |
| 2026-05-05 20:45 | 49.44607 | -2.38070 | 1991 ft | 198 kts | 223° |
| 2026-05-05 20:45 | 49.43942 | -2.39772 | 1997 ft | 175 kts | 261° |
| 2026-05-05 20:45 | 49.43841 | -2.41582 | 2003 ft | 170 kts | 275° |
| 2026-05-05 20:46 | 49.43871 | -2.43388 | 1991 ft | 169 kts | 277° |
| 2026-05-05 20:46 | 49.43905 | -2.45190 | 2011 ft | 169 kts | 274° |
| 2026-05-05 20:46 | 49.43876 | -2.47010 | 1926 ft | 170 kts | 272° |
| 2026-05-05 20:46 | 49.43819 | -2.48815 | 1711 ft | 168 kts | 271° |
| 2026-05-05 20:47 | 49.43762 | -2.50538 | 1472 ft | 155 kts | 272° |
| 2026-05-05 20:47 | 49.43715 | -2.52114 | 1256 ft | 141 kts | 272° |
| 2026-05-05 20:47 | 49.43676 | -2.53554 | 1065 ft | 131 kts | 272° |
| 2026-05-05 20:47 | 49.43637 | -2.54946 | 909 ft | 131 kts | 271° |
| 2026-05-05 20:48 | 49.43603 | -2.56328 | 738 ft | 129 kts | 271° |
| 2026-05-05 20:48 | 49.43565 | -2.57701 | 576 ft | 128 kts | 270° |
| 2026-05-05 20:48 | 49.43526 | -2.59052 | 400 ft | 126 kts | 270° |
| 2026-05-05 20:48 | 49.43498 | -2.60346 | 315 ft | 104 kts | 269° |
| 2026-05-05 20:49 | 49.43475 | -2.61070 | 299 ft | 46 kts | 267° |
| 2026-05-05 20:49 | 49.43450 | -2.61341 | 298 ft | 18 kts | 216° |
| 2026-05-05 20:49 | 49.43361 | -2.61238 | 301 ft | 16 kts | 103° |
| 2026-05-05 20:49 | 49.43361 | -2.61061 | 301 ft | 16 kts | 88° |
| 2026-05-05 20:50 | 49.43360 | -2.60882 | 301 ft | 17 kts | 99° |
| 2026-05-05 20:50 | 49.43343 | -2.60705 | 304 ft | 15 kts | 98° |
| 2026-05-05 20:50 | 49.43330 | -2.60546 | 308 ft | 14 kts | 93° |
| 2026-05-05 20:50 | 49.43331 | -2.60406 | 312 ft | 11 kts | 88° |
| 2026-05-05 20:51 | 49.43335 | -2.60294 | 317 ft | 12 kts | 88° |
| 2026-05-05 20:51 | 49.43339 | -2.60117 | 324 ft | 17 kts | 88° |
| 2026-05-05 20:51 | 49.43343 | -2.59950 | 329 ft | 14 kts | 89° |
| 2026-05-05 20:51 | 49.43347 | -2.59803 | 332 ft | 13 kts | 85° |
| 2026-05-05 20:52 | 49.43345 | -2.59690 | 335 ft | 7 kts | 169° |
| 2026-05-05 20:52 | 49.43293 | -2.59687 | 335 ft | 6 kts | 179° |
| 2026-05-05 20:52 | 49.43263 | -2.59686 | 336 ft | 1 kts | 179° |
| 2026-05-05 20:52 | 49.43259 | -2.59686 | 336 ft | 0 kts | 179° |